createdAt,value
2022-08-30T00:01:35.365Z,101912.88
2022-08-30T00:06:57.423Z,101910.34
2022-08-30T00:12:21.208Z,101914.84
2022-08-30T00:17:43.717Z,101905.84
2022-08-30T00:23:06.201Z,101906.72
2022-08-30T00:28:28.176Z,101905.25
2022-08-30T00:33:49.911Z,101902.47
2022-08-30T00:39:11.707Z,101893.25
2022-08-30T00:44:33.986Z,101910.00
2022-08-30T00:49:58.038Z,101914.72
2022-08-30T00:55:20.443Z,101916.91
2022-08-30T01:00:42.284Z,101913.25
2022-08-30T01:06:05.466Z,101916.91
2022-08-30T01:11:27.532Z,101912.44
2022-08-30T01:16:50.519Z,101910.72
2022-08-30T01:22:27.735Z,101908.78
2022-08-30T01:27:55.498Z,101919.09
2022-08-30T01:33:20.221Z,101919.34
2022-08-30T01:38:57.044Z,101910.13
2022-08-30T01:44:18.744Z,101902.88
2022-08-30T01:49:40.704Z,101906.75
2022-08-30T01:55:04.140Z,101898.38
2022-08-30T02:00:25.841Z,101896.41
2022-08-30T02:05:50.652Z,101901.16
2022-08-30T02:11:13.384Z,101899.47
2022-08-30T02:16:35.203Z,101907.84
2022-08-30T02:21:57.350Z,101894.75
2022-08-30T02:27:19.109Z,101898.63
2022-08-30T02:32:41.682Z,101899.47
2022-08-30T02:38:04.264Z,101893.06
2022-08-30T02:43:27.059Z,101872.66
2022-08-30T02:48:51.629Z,101873.75
2022-08-30T02:54:19.794Z,101882.13
2022-08-30T02:59:44.367Z,101865.66
2022-08-30T03:05:07.826Z,101863.97
2022-08-30T03:10:29.714Z,101865.91
2022-08-30T03:15:51.887Z,101865.91
2022-08-30T03:21:16.069Z,101856.69
2022-08-30T03:26:37.935Z,101853.91
2022-08-30T03:32:00.098Z,101858.66
2022-08-30T03:37:26.886Z,101856.97
2022-08-30T03:42:49.134Z,101852.47
2022-08-30T03:48:11.187Z,101864.72
2022-08-30T03:53:33.208Z,101857.44
2022-08-30T03:58:55.016Z,101854.66
2022-08-30T04:04:20.773Z,101871.41
2022-08-30T04:09:43.071Z,101858.53
2022-08-30T04:15:05.220Z,101857.72
2022-08-30T04:20:27.532Z,101870.78
2022-08-30T04:25:49.271Z,101873.59
2022-08-30T04:31:16.987Z,101877.47
2022-08-30T04:36:39.154Z,101884.75
2022-08-30T04:42:03.379Z,101881.34
2022-08-30T04:47:25.127Z,101883.03
2022-08-30T04:52:47.525Z,101878.56
2022-08-30T04:58:11.161Z,101888.03
2022-08-30T05:03:32.847Z,101888.03
2022-08-30T05:08:55.952Z,101883.53
2022-08-30T05:14:17.712Z,101890.81
2022-08-30T05:19:39.460Z,101900.03
2022-08-30T05:25:01.222Z,101905.38
2022-08-30T05:30:25.637Z,101899.78
2022-08-30T05:35:47.428Z,101896.16
2022-08-30T05:41:10.993Z,101912.63
2022-08-30T05:51:57.154Z,101903.66
2022-08-30T05:57:19.270Z,101901.75
2022-08-30T06:02:42.217Z,101906.22
2022-08-30T06:08:04.551Z,101904.53
2022-08-30T06:13:26.239Z,101903.66
2022-08-30T06:18:48.777Z,101907.41
2022-08-30T06:24:11.644Z,101903.03
2022-08-30T06:29:33.370Z,101899.72
2022-08-30T06:34:55.107Z,101899.47
2022-08-30T06:40:18.486Z,101903.19
2022-08-30T06:45:40.376Z,101904.75
2022-08-30T06:51:02.251Z,101894.81
2022-08-30T06:56:28.084Z,101891.47
2022-08-30T07:01:53.035Z,101895.97
2022-08-30T07:07:15.165Z,101897.66
2022-08-30T07:12:36.922Z,101901.91
2022-08-30T07:18:17.294Z,101899.69
2022-08-30T07:23:39.308Z,101910.63
2022-08-30T07:29:02.016Z,101904.53
2022-08-30T07:34:26.983Z,101905.97
2022-08-30T07:39:49.197Z,101906.78
2022-08-30T07:45:11.770Z,101895.41
2022-08-30T07:50:34.133Z,101908.00
2022-08-30T07:55:55.869Z,101903.59
2022-08-30T08:01:19.167Z,101909.50
2022-08-30T08:06:41.634Z,101916.25
2022-08-30T08:12:08.230Z,101918.56
2022-08-30T08:17:29.976Z,101918.31
2022-08-30T08:22:52.135Z,101913.06
2022-08-30T08:28:14.274Z,101914.22
2022-08-30T08:33:36.237Z,101915.41
2022-08-30T08:38:58.402Z,101914.63
2022-08-30T08:44:34.626Z,101910.75
2022-08-30T08:50:01.365Z,101913.06
2022-08-30T08:55:24.400Z,101913.66
2022-08-30T09:00:46.128Z,101919.25
2022-08-30T09:06:30.619Z,101921.50
2022-08-30T09:11:52.428Z,101915.91
2022-08-30T09:17:17.222Z,101912.03
2022-08-30T09:22:43.801Z,101916.50
2022-08-30T09:28:12.935Z,101912.03
2022-08-30T09:33:37.233Z,101921.50
2022-08-30T09:39:14.734Z,101912.88
2022-08-30T09:44:38.786Z,101912.03
2022-08-30T09:50:20.019Z,101915.69
2022-08-30T09:56:06.508Z,101917.59
2022-08-30T10:01:41.056Z,101912.03
2022-08-30T10:07:13.646Z,101901.94
2022-08-30T10:12:39.818Z,101903.66
2022-08-30T10:18:06.081Z,101899.16
2022-08-30T10:23:36.519Z,101904.19
2022-08-30T10:29:06.871Z,101895.22
2022-08-30T10:35:08.098Z,101893.75
2022-08-30T10:40:50.297Z,101891.97
2022-08-30T10:46:31.311Z,101888.16
2022-08-30T10:52:12.514Z,101886.31
2022-08-30T10:57:34.703Z,101880.72
2022-08-30T11:03:14.870Z,101875.16
2022-08-30T11:08:45.588Z,101871.75
2022-08-30T11:14:13.479Z,101872.22
2022-08-30T11:19:44.264Z,101869.44
2022-08-30T11:25:11.608Z,101864.97
2022-08-30T11:30:33.552Z,101866.31
2022-08-30T11:35:58.747Z,101862.06
2022-08-30T11:42:14.048Z,101862.06
2022-08-30T11:47:41.314Z,101858.19
2022-08-30T11:53:11.522Z,101853.47
2022-08-30T11:58:52.075Z,101854.88
2022-08-30T12:04:28.651Z,101858.03
2022-08-30T12:09:50.700Z,101858.63
2022-08-30T12:16:02.801Z,101842.47
2022-08-30T12:21:41.044Z,101855.31
2022-08-30T12:27:24.971Z,101864.28
2022-08-30T12:32:50.780Z,101863.44
2022-08-30T12:38:18.643Z,101864.53
2022-08-30T12:43:50.514Z,101876.31
2022-08-30T12:49:16.208Z,101862.34
2022-08-30T12:54:40.530Z,101863.19
2022-08-30T13:00:10.585Z,101866.81
2022-08-30T13:05:45.777Z,101855.66
2022-08-30T13:11:25.057Z,101841.69
2022-08-30T13:16:51.080Z,101838.88
2022-08-30T13:22:24.903Z,101845.06
2022-08-30T13:27:48.820Z,101815.72
2022-08-30T13:33:11.731Z,101818.50
2022-08-30T13:38:33.490Z,101820.44
2022-08-30T13:44:14.132Z,101818.75
2022-08-30T13:49:46.883Z,101824.31
2022-08-30T13:55:09.493Z,101812.56
2022-08-30T14:00:37.454Z,101802.53
2022-08-30T14:06:29.247Z,101812.00
2022-08-30T14:11:42.108Z,101798.88
2022-08-30T14:17:03.916Z,101804.72
2022-08-30T14:22:25.672Z,101808.34
2022-08-30T14:27:48.066Z,101805.56
2022-08-30T14:33:09.845Z,101799.97
2022-08-30T14:38:32.025Z,101804.44
2022-08-30T14:43:53.804Z,101812.84
2022-08-30T14:49:16.673Z,101808.94
2022-08-30T14:54:38.573Z,101791.34
2022-08-30T15:00:00.349Z,101793.00
2022-08-30T15:05:22.061Z,101794.69
2022-08-30T15:10:44.391Z,101793.00
2022-08-30T15:16:31.873Z,101781.84
2022-08-30T15:21:53.809Z,101781.00
2022-08-30T15:27:15.539Z,101791.06
2022-08-30T15:32:37.227Z,101783.53
2022-08-30T15:37:58.951Z,101791.66
2022-08-30T15:43:20.820Z,101785.22
2022-08-30T15:48:45.601Z,101782.41
2022-08-30T15:54:07.768Z,101767.34
2022-08-30T15:59:30.679Z,101774.63
2022-08-30T16:04:52.758Z,101773.53
2022-08-30T16:10:15.167Z,101772.44
2022-08-30T16:15:40.115Z,101761.53
2022-08-30T16:21:10.559Z,101763.47
2022-08-30T16:26:35.718Z,101760.34
2022-08-30T16:31:57.691Z,101757.28
2022-08-30T16:37:19.414Z,101759.84
2022-08-30T16:42:41.718Z,101764.03
2022-08-30T16:48:04.117Z,101756.25
2022-08-30T16:53:26.760Z,101768.00
2022-08-30T16:58:49.271Z,101772.50
2022-08-30T17:04:15.739Z,101781.44
2022-08-30T17:09:40.006Z,101776.44
2022-08-30T17:15:02.697Z,101781.78
2022-08-30T17:20:31.215Z,101773.13
2022-08-30T17:25:57.017Z,101784.31
2022-08-30T17:31:18.812Z,101787.94
2022-08-30T17:36:41.903Z,101788.53
2022-08-30T17:42:05.406Z,101800.56
2022-08-30T17:47:27.357Z,101817.91
2022-08-30T17:52:50.390Z,101819.56
2022-08-30T17:58:12.131Z,101820.16
2022-08-30T18:03:34.035Z,101835.59
2022-08-30T18:08:55.860Z,101828.31
2022-08-30T18:14:18.745Z,101833.03
2022-08-30T18:19:46.107Z,101839.72
2022-08-30T18:25:09.476Z,101840.19
2022-08-30T18:30:34.698Z,101846.81
2022-08-30T18:36:02.031Z,101860.22
2022-08-30T18:41:23.742Z,101854.28
2022-08-30T18:46:56.175Z,101853.72
2022-08-30T18:52:18.713Z,101860.63
2022-08-30T18:57:40.541Z,101866.50
2022-08-30T19:03:03.003Z,101869.56
2022-08-30T19:08:24.718Z,101870.91
2022-08-30T19:13:46.478Z,101889.00
2022-08-30T19:19:10.219Z,101889.50
2022-08-30T19:24:35.243Z,101884.19
2022-08-30T19:29:57.473Z,101902.31
2022-08-30T19:35:20.393Z,101891.38
2022-08-30T19:40:42.166Z,101901.13
2022-08-30T19:46:07.196Z,101903.31
2022-08-30T19:51:30.065Z,101903.81
2022-08-30T19:56:53.195Z,101899.34
2022-08-30T20:02:15.142Z,101907.97
2022-08-30T20:07:37.747Z,101902.41
2022-08-30T20:12:59.513Z,101914.94
2022-08-30T20:18:21.256Z,101905.94
2022-08-30T20:23:43.736Z,101914.59
2022-08-30T20:29:07.580Z,101917.94
2022-08-30T20:34:29.283Z,101917.63
2022-08-30T20:39:51.374Z,101915.94
2022-08-30T20:45:15.493Z,101914.84
2022-08-30T20:50:38.998Z,101919.81
2022-08-30T20:56:00.996Z,101913.66
2022-08-30T21:01:23.663Z,101923.38
2022-08-30T21:06:45.701Z,101923.16
2022-08-30T21:12:07.626Z,101932.69
2022-08-30T21:17:30.392Z,101924.91
2022-08-30T21:22:52.280Z,101936.94
2022-08-30T21:28:14.011Z,101924.06
2022-08-30T21:33:39.008Z,101925.41
2022-08-30T21:39:01.146Z,101926.50
2022-08-30T21:44:26.559Z,101925.06
2022-08-30T21:49:48.292Z,101921.44
2022-08-30T21:55:10.161Z,101924.75
2022-08-30T22:00:33.749Z,101928.63
2022-08-30T22:05:55.458Z,101943.69
2022-08-30T22:11:21.910Z,101945.38
2022-08-30T22:16:44.082Z,101942.00
2022-08-30T22:22:06.185Z,101936.91
2022-08-30T22:27:27.934Z,101940.81
2022-08-30T22:32:49.826Z,101942.75
2022-08-30T22:38:14.692Z,101939.13
2022-08-30T22:43:36.611Z,101943.84
2022-08-30T22:48:58.378Z,101940.47
2022-08-30T22:54:20.157Z,101939.63
2022-08-30T22:59:42.474Z,101948.00
2022-08-30T23:05:05.193Z,101948.22
2022-08-30T23:10:28.356Z,101942.66
2022-08-30T23:15:50.100Z,101946.56
2022-08-30T23:21:20.954Z,101947.41
2022-08-30T23:27:03.105Z,101943.78
2022-08-30T23:32:43.472Z,101940.13
2022-08-30T23:38:24.550Z,101944.00
2022-08-30T23:44:05.091Z,101936.72
2022-08-30T23:49:45.220Z,101944.50
2022-08-30T23:55:26.199Z,101938.09
